Time;durP1;ratioP1;P1;durP2;ratioP2;P2;SDS_P1;SDS_P2;PMS_P1;PMS_P2;Temp;Humidity;BMP_temperature;BMP_pressure;BME280_temperature;BME280_humidity;BME280_pressure;Samples;Min_cycle;Max_cycle;Signal;HPM_P1;HPM_P2
2022/02/19 08:17:11;;;;;;;;;;;6.00;1.00;;;;;;6193971;23;19924;-86
2022/02/19 08:19:58;;;;;;;;;;;6.20;1.00;;;;;;6180700;23;20264;-82
2022/02/19 08:22:45;;;;;;;;;;;6.20;1.00;;;;;;6196195;23;19928;-94
2022/02/19 08:25:32;;;;;;;15.77;2.83;;;6.60;99.90;;;;;;5100301;27;20410;-83
2022/02/19 08:28:20;;;;;;;16.15;2.90;;;6.70;1.00;;;;;;5067753;28;20068;-83
2022/02/19 08:31:07;;;;;;;15.43;2.92;;;6.80;1.00;;;;;;5067257;28;20092;-84
2022/02/19 08:33:54;;;;;;;12.02;3.10;;;6.90;99.90;;;;;;5082312;28;20068;-86
2022/02/19 08:36:41;;;;;;;15.55;2.95;;;7.20;99.90;;;;;;5068823;28;20150;-84
2022/02/19 08:39:30;;;;;;;9.35;2.85;;;7.20;99.90;;;;;;5058655;28;20202;-86
2022/02/19 08:42:20;;;;;;;12.15;2.92;;;7.40;99.90;;;;;;5078466;28;20049;-85
2022/02/19 08:45:11;;;;;;;13.05;2.63;;;7.70;1.00;;;;;;5068490;28;20080;-84
2022/02/19 08:48:06;;;;;;;10.52;2.63;;;7.90;1.00;;;;;;5081317;28;20060;-85
2022/02/19 08:50:53;;;;;;;11.75;2.30;;;7.80;1.00;;;;;;5067115;28;20045;-87
2022/02/19 08:53:40;;;;;;;11.27;2.88;;;8.10;99.90;;;;;;5071074;28;20049;-86
2022/02/19 08:56:34;;;;;;;9.43;2.22;;;8.20;99.90;;;;;;5062192;28;20080;-85
2022/02/19 08:59:24;;;;;;;9.00;2.20;;;7.90;99.90;;;;;;5058867;28;20439;-87
2022/02/19 09:02:11;;;;;;;6.50;1.77;;;7.50;1.00;;;;;;5063137;28;20125;-85
2022/02/19 09:04:58;;;;;;;12.35;2.20;;;7.60;99.90;;;;;;5068983;28;20123;-86
2022/02/19 09:07:45;;;;;;;10.18;2.22;;;7.60;1.00;;;;;;5068438;28;20142;-85
2022/02/19 09:10:32;;;;;;;13.32;2.17;;;7.40;1.00;;;;;;5071664;28;20095;-85
2022/02/19 09:13:19;;;;;;;7.30;1.77;;;7.20;1.00;;;;;;5071305;28;20113;-86
2022/02/19 09:16:06;;;;;;;9.27;2.10;;;6.60;99.90;;;;;;5064555;28;20103;-87
2022/02/19 09:18:58;;;;;;;11.32;2.53;;;6.30;1.00;;;;;;5060941;28;20090;-86
2022/02/19 09:21:52;;;;;;;8.68;2.17;;;6.10;1.00;;;;;;5060886;28;20060;-87
2022/02/19 09:24:39;;;;;;;12.65;2.80;;;5.90;99.90;;;;;;5065208;28;20094;-88
2022/02/19 09:27:30;;;;;;;9.88;2.45;;;5.80;1.00;;;;;;5055258;28;20120;-90
2022/02/19 09:30:17;;;;;;;18.65;2.60;;;5.60;1.00;;;;;;5078684;28;20053;-91
2022/02/19 09:33:07;;;;;;;12.88;2.45;;;5.40;1.00;;;;;;5068472;28;20040;-84
2022/02/19 09:36:00;;;;;;;14.35;2.20;;;5.30;99.90;;;;;;5057377;28;20063;-84
2022/02/19 09:38:48;;;;;;;;;;;5.70;99.90;;;;;;5052160;28;20105;-86
2022/02/19 09:41:45;;;;;;;8.68;2.47;;;6.10;1.00;;;;;;5053767;28;19944;-88
2022/02/19 09:44:32;;;;;;;4.47;1.80;;;6.60;99.90;;;;;;5052385;28;20053;-83
2022/02/19 09:47:30;;;;;;;9.05;2.15;;;7.80;1.00;;;;;;5052853;28;20415;-87
2022/02/19 09:50:18;;;;;;;6.72;1.90;;;8.90;99.90;;;;;;5043192;28;20068;-86
2022/02/19 09:53:08;;;;;;;5.20;2.03;;;9.30;1.00;;;;;;5047778;28;20071;-85
2022/02/19 09:55:56;;;;;;;7.47;1.88;;;9.90;1.00;;;;;;5047551;28;20479;-87
2022/02/19 09:58:45;;;;;;;6.88;2.15;;;10.80;99.90;;;;;;5042971;28;20076;-87
2022/02/19 10:01:32;;;;;;;7.78;2.05;;;11.80;1.00;;;;;;5054949;28;20051;-84
2022/02/19 10:04:25;;;;;;;9.23;1.98;;;11.20;99.90;;;;;;5047917;28;20052;-85
2022/02/19 10:07:13;;;;;;;7.68;2.15;;;10.70;56.30;;;;;;5044713;28;20048;-86
2022/02/19 10:10:01;;;;;;;10.27;2.10;;;10.40;57.30;;;;;;5054845;28;20103;-85
2022/02/19 10:12:48;;;;;;;6.10;1.63;;;10.50;56.70;;;;;;5055496;28;20151;-87
2022/02/19 10:15:53;;;;;;;6.85;2.03;;;10.50;56.80;;;;;;5062134;28;20079;-87
2022/02/19 10:18:44;;;;;;;8.18;2.10;;;11.20;54.80;;;;;;5054373;28;20072;-85
2022/02/19 10:21:31;;;;;;;5.32;1.48;;;11.50;55.00;;;;;;5044642;28;20405;-86
2022/02/19 10:24:19;;;;;;;6.78;1.50;;;12.00;53.10;;;;;;5055949;28;20052;-85
2022/02/19 10:27:10;;;;;;;6.10;1.90;;;11.90;53.30;;;;;;5065320;28;20189;-87
2022/02/19 10:29:58;;;;;;;8.60;1.98;;;12.20;50.90;;;;;;5063882;28;20045;-85
2022/02/19 10:33:00;;;;;;;6.55;1.98;;;11.90;51.60;;;;;;5064650;28;20053;-87
2022/02/19 10:35:48;;;;;;;9.95;2.58;;;12.10;50.90;;;;;;5055077;28;20154;-86
2022/02/19 10:38:57;;;;;;;10.55;2.17;;;12.20;51.30;;;;;;5059582;28;20111;-86
2022/02/19 10:41:44;;;;;;;10.15;2.20;;;12.20;51.70;;;;;;5048396;28;20117;-86
2022/02/19 10:44:35;;;;;;;3.17;1.52;;;12.20;51.70;;;;;;5048706;28;20075;-85
2022/02/19 10:47:29;;;;;;;5.40;1.33;;;12.80;50.50;;;;;;5055414;28;20175;-87
2022/02/19 10:50:20;;;;;;;5.05;1.73;;;13.50;47.30;;;;;;5064836;28;20114;-84
2022/02/19 10:53:28;;;;;;;7.03;1.80;;;13.00;46.60;;;;;;5054045;28;20117;-86
2022/02/19 10:56:18;;;;;;;4.20;1.30;;;12.80;47.60;;;;;;5036370;28;20454;-85
2022/02/19 10:59:11;;;;;;;11.32;1.60;;;12.90;46.70;;;;;;5037443;28;20050;-86
2022/02/19 11:02:01;;;;;;;7.90;1.85;;;12.30;47.90;;;;;;5053012;28;20515;-86
2022/02/19 11:04:48;;;;;;;7.20;1.88;;;11.90;49.20;;;;;;5055146;28;20053;-85
2022/02/19 11:07:40;;;;;;;8.98;2.17;;;11.70;49.70;;;;;;5056271;28;20354;-87
2022/02/19 11:10:28;;;;;;;8.65;1.83;;;11.20;50.80;;;;;;5064698;28;20049;-85
2022/02/19 11:13:17;;;;;;;11.82;2.53;;;10.20;51.00;;;;;;5086751;28;20044;-85
2022/02/19 11:16:08;;;;;;;6.40;1.75;;;9.20;53.80;;;;;;5076943;28;20126;-85
2022/02/19 11:18:55;;;;;;;5.07;1.98;;;10.10;54.80;;;;;;5091912;28;20043;-85
2022/02/19 11:21:54;;;;;;;5.88;2.08;;;9.80;54.20;;;;;;5093656;28;20052;-85
2022/02/19 11:24:50;;;;;;;6.88;1.63;;;9.50;55.20;;;;;;5092047;28;20105;-86
2022/02/19 11:27:48;;;;;;;7.57;1.67;;;9.00;55.90;;;;;;5083408;28;20506;-85
2022/02/19 11:30:52;;;;;;;7.13;2.47;;;8.20;58.10;;;;;;5085845;28;20402;-84
2022/02/19 11:33:45;;;;;;;5.78;1.85;;;8.10;59.60;;;;;;5078494;28;20076;-84
2022/02/19 11:36:36;;;;;;;6.95;2.08;;;8.80;58.20;;;;;;5082440;28;20396;-86
2022/02/19 11:39:23;;;;;;;8.52;2.03;;;8.60;58.10;;;;;;5087829;28;20158;-84
2022/02/19 11:42:21;;;;;;;8.18;1.60;;;8.50;59.40;;;;;;5090322;28;20140;-84
2022/02/19 11:45:31;;;;;;;12.57;2.25;;;9.10;57.50;;;;;;5087150;28;20070;-85
2022/02/19 11:48:20;;;;;;;8.13;2.50;;;9.60;56.00;;;;;;5084084;28;20090;-85
2022/02/19 11:51:21;;;;;;;9.93;2.08;;;9.80;55.90;;;;;;5093305;28;20076;-85
2022/02/19 11:54:11;;;;;;;8.27;1.70;;;9.60;56.00;;;;;;5090610;28;20124;-84
2022/02/19 11:57:21;;;;;;;14.98;3.55;;;8.60;57.40;;;;;;5094369;28;20051;-86
2022/02/19 12:00:08;;;;;;;12.05;2.35;;;8.30;57.30;;;;;;5103741;28;20051;-84
2022/02/19 12:03:14;;;;;;;8.32;1.92;;;7.70;59.50;;;;;;5097230;28;20040;-87
2022/02/19 12:06:14;;;;;;;10.40;1.98;;;8.10;60.30;;;;;;5102842;28;20040;-85
2022/02/19 12:09:05;;;;;;;6.90;1.60;;;8.30;60.70;;;;;;5086031;28;20111;-84
2022/02/19 12:11:55;;;;;;;5.60;1.60;;;9.20;57.40;;;;;;5082073;28;20052;-80
2022/02/19 12:14:44;;;;;;;4.63;1.80;;;8.60;57.10;;;;;;5087302;28;20040;-84
2022/02/19 12:17:42;;;;;;;7.35;1.90;;;7.80;59.20;;;;;;5095902;28;20051;-84
2022/02/19 12:20:32;;;;;;;6.57;1.98;;;7.40;61.10;;;;;;5095714;28;20040;-82
2022/02/19 12:23:19;;;;;;;7.72;2.28;;;7.40;61.80;;;;;;5101147;28;20044;-84
2022/02/19 12:26:09;;;;;;;11.63;2.58;;;7.20;62.40;;;;;;5085752;28;20098;-86
2022/02/19 12:29:20;;;;;;;14.35;2.78;;;7.20;62.40;;;;;;5086365;28;20400;-85
2022/02/19 12:32:17;;;;;;;7.10;2.30;;;7.10;62.60;;;;;;5087334;28;20126;-85
2022/02/19 12:35:04;;;;;;;8.88;1.92;;;8.70;58.50;;;;;;5080322;28;20063;-85
2022/02/19 12:37:52;;;;;;;7.32;1.52;;;10.50;54.40;;;;;;5085902;28;20087;-86
2022/02/19 12:40:43;;;;;;;4.18;1.50;;;11.80;51.50;;;;;;5084600;28;20036;-87
2022/02/19 12:43:30;;;;;;;6.70;1.98;;;12.70;47.90;;;;;;5089107;28;20453;-85
2022/02/19 12:46:21;;;;;;;3.15;1.30;;;12.90;47.60;;;;;;5096444;28;20039;-86
2022/02/19 12:49:09;;;;;;;5.72;1.73;;;13.30;46.30;;;;;;5085549;28;20036;-86
2022/02/19 12:52:03;;;;;;;7.30;1.67;;;12.30;47.40;;;;;;5089058;28;20052;-84
2022/02/19 12:54:53;;;;;;;7.13;2.47;;;11.10;49.50;;;;;;5078720;28;20377;-83
2022/02/19 12:57:58;;;;;;;4.63;1.45;;;12.50;49.00;;;;;;5092665;28;20384;-83
2022/02/19 13:00:56;;;;;;;4.60;1.20;;;13.50;46.30;;;;;;5082012;28;20362;-85
2022/02/19 13:03:44;;;;;;;4.22;1.10;;;14.30;43.90;;;;;;5073264;28;20040;-86
2022/02/19 13:06:47;;;;;;;4.75;1.23;;;14.90;41.50;;;;;;5072758;28;20410;-84
2022/02/19 13:09:35;;;;;;;4.38;1.20;;;14.00;42.30;;;;;;5084318;28;20044;-83
2022/02/19 13:12:31;;;;;;;6.75;1.25;;;13.90;42.00;;;;;;5088096;28;20036;-86
2022/02/19 13:15:22;;;;;;;6.13;1.40;;;14.20;41.80;;;;;;5059590;28;20620;-84
2022/02/19 13:18:09;;;;;;;6.68;1.30;;;14.50;42.00;;;;;;5092065;28;20453;-86
2022/02/19 13:21:05;;;;;;;5.10;1.33;;;15.40;40.40;;;;;;5092911;28;20051;-84
2022/02/19 13:23:55;;;;;;;3.95;1.00;;;14.10;40.80;;;;;;5093204;28;20122;-85
2022/02/19 13:26:42;;;;;;;6.38;2.00;;;13.70;41.90;;;;;;5068339;28;20059;-87
2022/02/19 13:29:29;;;;;;;4.07;1.50;;;13.30;42.20;;;;;;5090358;28;20049;-86
2022/02/19 13:32:30;;;;;;;4.40;1.45;;;13.40;41.20;;;;;;5090353;28;20048;-85
2022/02/19 13:35:33;;;;;;;5.57;2.38;;;12.90;42.00;;;;;;5092828;28;20138;-86
2022/02/19 13:38:21;;;;;;;2.90;1.45;;;12.60;43.30;;;;;;5077831;28;20059;-83
2022/02/19 13:41:10;;;;;;;5.43;1.88;;;11.30;46.20;;;;;;5094084;28;20160;-85
2022/02/19 13:43:59;;;;;;;4.57;1.80;;;11.70;46.10;;;;;;5090496;28;20116;-86
2022/02/19 13:46:46;;;;;;;3.47;1.40;;;12.00;46.00;;;;;;5089785;28;20040;-85
2022/02/19 13:49:38;;;;;;;4.38;1.50;;;12.40;45.90;;;;;;5074306;28;20049;-86
2022/02/19 13:52:27;;;;;;;4.03;1.60;;;12.80;45.70;;;;;;5084333;28;20124;-86
2022/02/19 13:55:16;;;;;;;3.67;1.40;;;12.90;44.20;;;;;;5092899;28;20062;-86
2022/02/19 13:58:20;;;;;;;4.95;1.52;;;13.30;44.20;;;;;;5093514;28;20054;-86
2022/02/19 14:01:10;;;;;;;5.53;1.60;;;13.90;43.20;;;;;;5106459;28;20104;-87
2022/02/19 14:04:06;;;;;;;6.30;1.30;;;14.10;42.40;;;;;;5083623;28;20055;-86
2022/02/19 14:07:17;;;;;;;6.57;1.60;;;14.30;41.50;;;;;;5081660;28;20075;-84
2022/02/19 14:10:09;;;;;;;6.85;2.67;;;14.70;41.50;;;;;;5085253;28;20102;-85
2022/02/19 14:13:09;;;;;;;4.40;1.58;;;13.70;41.20;;;;;;5090318;28;20081;-87
2022/02/19 14:15:57;;;;;;;4.40;1.40;;;12.80;40.80;;;;;;5085171;28;20053;-86
2022/02/19 14:18:44;;;;;;;5.13;1.45;;;12.50;43.20;;;;;;5093185;28;20063;-88
2022/02/19 14:21:32;;;;;;;5.38;1.60;;;13.30;42.30;;;;;;5075269;28;20180;-87
2022/02/19 14:24:56;;;;;;;5.88;1.52;;;12.80;41.70;;;;;;5087839;28;20052;-85
2022/02/19 14:27:49;;;;;;;9.65;1.85;;;12.30;42.60;;;;;;5091804;28;20456;-86
2022/02/19 14:30:37;;;;;;;7.00;2.75;;;11.50;44.20;;;;;;5090289;28;20136;-85
2022/02/19 14:33:28;;;;;;;6.43;1.65;;;10.70;45.60;;;;;;5085027;28;20137;-86
2022/02/19 14:36:21;;;;;;;6.03;1.67;;;10.80;47.40;;;;;;5066109;28;20107;-84
2022/02/19 14:39:11;;;;;;;4.43;1.88;;;11.90;44.30;;;;;;5091417;28;20141;-85
2022/02/19 14:42:01;;;;;;;5.78;1.80;;;12.10;43.60;;;;;;5076415;28;20133;-85
2022/02/19 14:44:50;;;;;;;8.00;1.80;;;12.30;43.80;;;;;;5089452;28;20116;-86
2022/02/19 14:47:39;;;;;;;6.97;1.60;;;12.50;43.00;;;;;;5082305;28;20044;-86
2022/02/19 14:50:28;;;;;;;5.80;1.73;;;13.10;42.60;;;;;;5091720;28;20121;-86
2022/02/19 14:53:16;;;;;;;5.72;1.65;;;13.70;41.20;;;;;;5087825;28;20206;-86
2022/02/19 14:56:21;;;;;;;4.00;1.40;;;14.40;40.30;;;;;;5073776;28;20084;-84
2022/02/19 14:59:08;;;;;;;4.20;1.65;;;13.90;39.60;;;;;;5086004;28;20040;-87
2022/02/19 15:01:55;;;;;;;4.40;1.55;;;13.30;41.60;;;;;;5079633;28;20121;-86
2022/02/19 15:04:43;;;;;;;6.55;1.63;;;12.50;42.70;;;;;;5092579;28;20048;-86
2022/02/19 15:07:54;;;;;;;3.83;1.38;;;12.10;43.80;;;;;;5081403;28;20040;-85
2022/02/19 15:10:44;;;;;;;5.95;1.75;;;11.20;44.60;;;;;;5093347;28;20371;-85
2022/02/19 15:13:31;;;;;;;6.43;1.83;;;11.10;45.70;;;;;;5083445;28;20115;-85
2022/02/19 15:16:19;;;;;;;6.57;1.85;;;11.30;45.70;;;;;;5091113;28;20134;-84
2022/02/19 15:19:06;;;;;;;4.60;1.75;;;11.50;44.60;;;;;;5083597;28;20600;-82
2022/02/19 15:21:53;;;;;;;4.82;2.15;;;11.50;45.20;;;;;;5085210;28;20110;-84
2022/02/19 15:24:45;;;;;;;3.88;1.67;;;11.00;45.60;;;;;;5085793;28;20126;-83
2022/02/19 15:27:33;;;;;;;4.50;1.92;;;11.10;46.30;;;;;;5074324;28;20145;-85
2022/02/19 15:30:20;;;;;;;3.97;2.03;;;11.50;45.70;;;;;;5088021;28;20147;-83
2022/02/19 15:33:10;;;;;;;4.72;1.40;;;11.30;45.70;;;;;;5091207;28;20037;-84
2022/02/19 15:35:58;;;;;;;4.13;1.70;;;11.50;45.50;;;;;;5092112;28;20105;-84
2022/02/19 15:38:47;;;;;;;6.20;2.08;;;11.60;45.10;;;;;;5089376;28;20105;-86
2022/02/19 15:41:37;;;;;;;8.38;1.50;;;11.50;46.00;;;;;;5090005;28;20052;-84
2022/02/19 15:44:26;;;;;;;5.63;2.00;;;11.20;45.50;;;;;;5086534;28;20060;-85
2022/02/19 15:47:14;;;;;;;7.75;1.92;;;10.90;46.60;;;;;;5085215;28;20425;-87
2022/02/19 15:50:05;;;;;;;3.45;1.30;;;10.90;46.80;;;;;;5072921;28;20072;-85
2022/02/19 15:52:56;;;;;;;5.38;1.55;;;10.80;47.10;;;;;;5087816;28;20482;-83
2022/02/19 15:55:43;;;;;;;4.88;1.67;;;10.90;47.30;;;;;;5075404;28;20068;-85
2022/02/19 15:58:31;;;;;;;5.38;1.58;;;10.50;47.80;;;;;;5090661;28;20524;-85
2022/02/19 16:01:21;;;;;;;2.78;1.42;;;10.40;48.40;;;;;;5081188;28;20041;-86
2022/02/19 16:04:09;;;;;;;5.68;1.77;;;10.30;49.00;;;;;;5092619;28;20047;-84
2022/02/19 16:07:01;;;;;;;5.93;1.73;;;10.10;48.50;;;;;;5070366;28;20156;-84
2022/02/19 16:09:48;;;;;;;4.50;1.80;;;9.30;50.00;;;;;;5072962;28;20115;-84
2022/02/19 16:12:35;;;;;;;7.22;2.17;;;8.30;51.90;;;;;;5092931;28;20408;-84
2022/02/19 16:15:23;;;;;;;6.05;1.83;;;7.60;54.00;;;;;;5106646;28;20055;-83
2022/02/19 16:18:11;;;;;;;8.68;1.92;;;7.00;55.00;;;;;;5077427;28;20178;-84
2022/02/19 16:20:58;;;;;;;9.52;2.28;;;6.70;56.00;;;;;;5084656;28;20432;-82
2022/02/19 16:23:45;;;;;;;5.22;1.95;;;6.50;56.60;;;;;;5090795;28;20166;-85
2022/02/19 16:26:35;;;;;;;6.30;2.85;;;6.40;57.40;;;;;;5091154;28;20134;-83
2022/02/19 16:29:22;;;;;;;7.18;3.17;;;6.30;58.00;;;;;;5090598;28;20055;-84
2022/02/19 16:32:12;;;;;;;11.90;3.70;;;6.20;58.80;;;;;;5109593;28;20040;-85
2022/02/19 16:34:59;;;;;;;8.88;3.30;;;6.00;59.90;;;;;;5101674;28;20044;-84
2022/02/19 16:37:47;;;;;;;7.68;2.63;;;5.90;60.70;;;;;;5112385;28;20059;-85
2022/02/19 16:40:34;;;;;;;7.50;3.00;;;5.80;61.20;;;;;;5105631;28;20163;-89
2022/02/19 16:43:24;;;;;;;3.58;2.05;;;5.70;62.10;;;;;;5097362;28;20088;-87
2022/02/19 16:46:11;;;;;;;9.20;3.33;;;5.60;62.60;;;;;;5111871;28;20047;-86
2022/02/19 16:49:00;;;;;;;7.55;3.00;;;5.50;63.30;;;;;;5099710;28;20047;-88
2022/02/19 16:51:47;;;;;;;7.93;2.88;;;5.40;64.00;;;;;;5087792;28;20036;-87
2022/02/19 16:54:34;;;;;;;12.15;2.70;;;5.30;64.90;;;;;;5096892;28;20137;-87
2022/02/19 16:57:24;;;;;;;6.90;2.30;;;5.20;65.00;;;;;;5078533;28;20080;-86
2022/02/19 17:00:12;;;;;;;6.65;2.55;;;5.10;66.00;;;;;;5077537;28;20106;-88
2022/02/19 17:03:07;;;;;;;11.13;3.28;;;5.10;66.50;;;;;;5086019;28;20056;-90
2022/02/19 17:05:57;;;;;;;10.80;3.03;;;5.00;67.20;;;;;;5086078;28;20048;-87
2022/02/19 17:08:47;;;;;;;10.95;3.25;;;4.80;67.70;;;;;;5087719;28;20064;-89
2022/02/19 17:11:38;;;;;;;;;;;4.50;69.10;;;;;;5107938;28;20044;-89
2022/02/19 17:14:27;;;;;;;12.38;4.40;;;4.30;69.70;;;;;;5091783;28;19942;-89
2022/02/19 17:17:15;;;;;;;9.77;3.63;;;4.10;70.90;;;;;;5104207;28;20044;-88
2022/02/19 17:20:02;;;;;;;8.90;3.70;;;4.10;70.80;;;;;;5092942;28;20143;-87
2022/02/19 17:22:51;;;;;;;9.05;3.22;;;4.00;70.70;;;;;;5094422;28;20525;-85
2022/02/19 17:25:40;;;;;;;8.13;3.15;;;4.00;71.40;;;;;;5084549;28;20047;-86
2022/02/19 17:28:33;;;;;;;15.90;5.95;;;4.00;71.40;;;;;;5085012;28;20072;-87
2022/02/19 17:31:25;;;;;;;17.05;6.32;;;4.00;71.20;;;;;;5099018;28;20055;-86
2022/02/19 17:34:12;;;;;;;;;;;4.10;70.40;;;;;;5094044;28;20079;-87
2022/02/19 17:37:01;;;;;;;10.50;3.03;;;4.00;70.80;;;;;;5104437;28;19973;-87
2022/02/19 17:39:50;;;;;;;18.13;6.40;;;4.00;70.80;;;;;;5085640;28;20044;-87
2022/02/19 17:42:40;;;;;;;21.33;8.95;;;4.00;71.00;;;;;;5081781;28;20062;-87
2022/02/19 17:45:30;;;;;;;21.92;7.72;;;4.00;71.40;;;;;;5094052;28;20136;-87
2022/02/19 17:48:19;;;;;;;17.20;5.88;;;3.90;72.40;;;;;;5095870;28;20087;-87
2022/02/19 17:51:08;;;;;;;8.70;3.70;;;3.80;73.00;;;;;;5081183;28;20048;-88
2022/02/19 17:53:55;;;;;;;9.30;3.22;;;3.80;73.40;;;;;;5072753;28;20098;-88
2022/02/19 17:56:42;;;;;;;11.38;3.00;;;3.80;74.00;;;;;;5097988;28;20047;-89
2022/02/19 17:59:32;;;;;;;10.10;3.65;;;3.70;74.80;;;;;;5093100;28;20068;-89
2022/02/19 18:02:19;;;;;;;10.55;3.63;;;3.70;75.80;;;;;;5078760;28;20052;-85
2022/02/19 18:05:09;;;;;;;6.28;3.78;;;3.70;76.60;;;;;;5090331;28;20143;-87
2022/02/19 18:07:59;;;;;;;10.55;3.53;;;3.80;77.50;;;;;;5070604;28;20074;-88
2022/02/19 18:10:47;;;;;;;11.93;4.78;;;3.70;78.00;;;;;;5092007;28;20048;-87
2022/02/19 18:13:34;;;;;;;13.57;3.42;;;3.70;79.00;;;;;;5084676;28;20356;-87
2022/02/19 18:16:24;;;;;;;9.65;3.22;;;3.80;80.10;;;;;;5074972;28;20048;-83
2022/02/19 18:19:14;;;;;;;10.48;3.50;;;3.80;80.60;;;;;;5090844;28;20057;-85
2022/02/19 18:22:01;;;;;;;7.78;2.42;;;3.80;82.00;;;;;;5081735;28;20044;-86
2022/02/19 18:24:48;;;;;;;9.85;3.47;;;3.90;81.70;;;;;;5069083;28;20323;-85
2022/02/19 18:27:37;;;;;;;11.25;4.40;;;3.80;82.50;;;;;;5085391;28;20040;-85
2022/02/19 18:30:25;;;;;;;13.10;3.80;;;3.70;83.20;;;;;;5074768;28;20353;-88
2022/02/19 18:33:15;;;;;;;14.48;3.50;;;3.70;83.90;;;;;;5075073;28;20044;-87
2022/02/19 18:36:02;;;;;;;12.85;3.30;;;3.70;84.40;;;;;;5090484;28;20357;-87
2022/02/19 18:38:50;;;;;;;13.93;3.75;;;3.70;84.80;;;;;;5086919;28;20048;-84
2022/02/19 18:41:38;;;;;;;7.95;2.97;;;3.70;86.60;;;;;;5084030;28;20055;-86
2022/02/19 18:44:30;;;;;;;10.57;3.00;;;3.60;87.30;;;;;;5087747;28;20059;-85
2022/02/19 18:47:19;;;;;;;12.60;3.25;;;3.60;87.70;;;;;;5084593;28;20052;-85
2022/02/19 18:50:08;;;;;;;10.38;2.67;;;3.60;89.10;;;;;;5094922;28;20036;-85
2022/02/19 18:52:56;;;;;;;12.07;3.53;;;3.50;89.40;;;;;;5078175;28;20036;-86
2022/02/19 18:55:46;;;;;;;9.30;3.30;;;3.50;90.00;;;;;;5076258;28;20051;-88
2022/02/19 18:58:37;;;;;;;8.40;3.58;;;3.50;90.00;;;;;;5085847;28;20063;-88
2022/02/19 19:01:25;;;;;;;14.27;3.50;;;3.50;90.10;;;;;;5082518;28;20056;-87
2022/02/19 19:04:14;;;;;;;9.43;2.95;;;3.50;89.90;;;;;;5084312;28;20055;-87
2022/02/19 19:07:05;;;;;;;13.13;3.67;;;3.60;89.40;;;;;;5097257;28;20483;-89
2022/02/19 19:09:53;;;;;;;9.63;3.47;;;3.70;88.10;;;;;;5064602;28;20048;-85
2022/02/19 19:12:41;;;;;;;13.13;4.30;;;3.60;87.50;;;;;;5071417;28;20044;-87
2022/02/19 19:15:33;;;;;;;12.40;4.20;;;3.60;88.00;;;;;;5108861;27;20044;-87
2022/02/19 19:18:24;;;;;;;11.10;3.42;;;3.60;87.70;;;;;;5087861;28;20063;-88
2022/02/19 19:21:13;;;;;;;9.00;3.05;;;3.60;87.80;;;;;;5085106;28;20048;-87
2022/02/19 19:24:00;;;;;;;5.47;3.08;;;3.70;87.40;;;;;;5085506;28;20044;-86
2022/02/19 19:26:48;;;;;;;9.52;2.63;;;3.70;86.60;;;;;;5099748;28;20055;-85
2022/02/19 19:29:38;;;;;;;10.02;3.10;;;3.70;86.30;;;;;;5089543;28;20052;-84
2022/02/19 19:32:26;;;;;;;5.55;2.63;;;3.80;85.50;;;;;;5095946;28;20120;-83
2022/02/19 19:35:16;;;;;;;9.05;2.60;;;3.80;84.90;;;;;;5087591;28;20131;-85
2022/02/19 19:38:06;;;;;;;8.80;2.85;;;3.90;83.40;;;;;;5073401;28;20391;-85
2022/02/19 19:40:53;;;;;;;9.73;2.47;;;4.00;83.00;;;;;;5070370;28;20060;-84
2022/02/19 19:43:41;;;;;;;8.52;2.38;;;4.00;82.70;;;;;;5102078;28;20040;-86
2022/02/19 19:46:28;;;;;;;13.20;2.92;;;3.90;83.10;;;;;;5086948;28;20130;-85
2022/02/19 19:49:16;;;;;;;8.93;2.90;;;3.90;83.00;;;;;;5084061;28;20040;-86
2022/02/19 19:52:04;;;;;;;10.65;2.35;;;3.90;83.00;;;;;;5099145;28;20048;-85
2022/02/19 19:54:52;;;;;;;10.82;2.30;;;3.90;82.80;;;;;;5096172;28;20041;-89
2022/02/19 19:57:41;;;;;;;10.15;3.53;;;3.80;82.80;;;;;;5105151;28;20048;-87
2022/02/19 20:00:29;;;;;;;6.70;2.60;;;3.80;82.90;;;;;;5086939;28;20047;-89
2022/02/19 20:03:25;;;;;;;6.05;2.50;;;3.80;82.60;;;;;;5079642;28;20113;-88
2022/02/19 20:06:15;;;;;;;16.10;3.80;;;3.80;82.80;;;;;;5099987;28;20112;-88
2022/02/19 20:09:02;;;;;;;12.98;2.67;;;3.80;82.30;;;;;;5098682;28;20122;-86
2022/02/19 20:11:55;;;;;;;7.57;2.42;;;3.80;83.10;;;;;;5104390;28;20048;-88
2022/02/19 20:14:44;;;;;;;14.48;2.38;;;3.80;82.10;;;;;;5067226;28;20319;-88
2022/02/19 20:17:32;;;;;;;6.75;2.65;;;3.80;82.10;;;;;;5094411;28;20101;-87
2022/02/19 20:20:20;;;;;;;7.50;2.72;;;3.80;81.80;;;;;;5085186;28;20059;-87
2022/02/19 20:23:07;;;;;;;9.35;2.70;;;3.70;82.80;;;;;;5078645;28;20047;-86
2022/02/19 20:26:04;;;;;;;5.85;2.83;;;3.70;82.30;;;;;;5081334;28;20399;-87
2022/02/19 20:28:52;;;;;;;8.70;2.13;;;3.70;82.70;;;;;;5094573;28;20453;-87
2022/02/19 20:31:45;;;;;;;6.53;3.00;;;3.70;82.40;;;;;;5082232;28;20040;-87
2022/02/19 20:34:34;;;;;;;8.25;2.70;;;3.70;83.00;;;;;;5085785;28;20063;-91
2022/02/19 20:37:22;;;;;;;12.20;2.28;;;3.70;82.40;;;;;;5098295;28;20047;-87
2022/02/19 20:40:12;;;;;;;9.93;2.47;;;3.80;82.80;;;;;;5088955;28;20096;-86
2022/02/19 20:43:02;;;;;;;6.57;2.40;;;3.80;82.20;;;;;;5067927;28;20040;-87
2022/02/19 20:45:50;;;;;;;4.10;2.38;;;3.80;82.00;;;;;;5085502;28;20055;-85
2022/02/19 20:48:40;;;;;;;4.57;2.10;;;3.80;81.60;;;;;;5076447;28;20040;-83
2022/02/19 20:51:27;;;;;;;8.95;2.58;;;3.90;81.10;;;;;;5071374;28;20048;-87
2022/02/19 20:54:16;;;;;;;7.45;2.08;;;3.90;81.60;;;;;;5079016;28;20044;-87
2022/02/19 20:57:09;;;;;;;11.30;2.83;;;3.80;81.50;;;;;;5096616;28;20052;-85
2022/02/19 20:59:57;;;;;;;7.60;2.70;;;3.80;81.30;;;;;;5090175;28;20047;-85
2022/02/19 21:02:47;;;;;;;8.20;2.47;;;3.80;81.40;;;;;;5089961;28;20044;-86
2022/02/19 21:05:37;;;;;;;7.13;2.35;;;3.80;81.70;;;;;;5104582;28;20135;-86
2022/02/19 21:08:24;;;;;;;7.78;2.75;;;3.70;82.90;;;;;;5059726;28;20053;-87
2022/02/19 21:11:11;;;;;;;8.93;2.75;;;3.70;81.90;;;;;;5103121;28;20040;-89
2022/02/19 21:14:01;;;;;;;6.55;2.60;;;3.70;81.80;;;;;;5091005;28;20096;-86
2022/02/19 21:16:51;;;;;;;9.93;2.70;;;3.70;82.30;;;;;;5078621;28;20170;-85
2022/02/19 21:19:39;;;;;;;7.22;2.40;;;3.70;82.70;;;;;;5093841;28;20055;-84
2022/02/19 21:22:29;;;;;;;11.85;2.55;;;3.70;82.60;;;;;;5106360;28;20036;-87
2022/02/19 21:25:19;;;;;;;9.00;2.60;;;3.70;82.90;;;;;;5103732;28;20047;-85
2022/02/19 21:28:07;;;;;;;8.75;2.38;;;3.60;83.50;;;;;;5084717;28;20048;-87
2022/02/19 21:30:54;;;;;;;9.50;2.75;;;3.60;83.30;;;;;;5077577;28;20125;-87
2022/02/19 21:33:42;;;;;;;6.20;2.40;;;3.60;83.40;;;;;;5110456;28;20044;-85
2022/02/19 21:36:30;;;;;;;11.32;2.97;;;3.60;83.70;;;;;;5098386;28;20063;-86
2022/02/19 21:39:19;;;;;;;11.32;2.47;;;3.60;82.60;;;;;;5096294;28;20093;-86
2022/02/19 21:42:11;;;;;;;9.05;2.40;;;3.60;83.00;;;;;;5097411;28;20066;-87
2022/02/19 21:44:58;;;;;;;9.82;2.30;;;3.70;82.50;;;;;;5099006;28;20641;-89
2022/02/19 21:47:46;;;;;;;6.75;2.30;;;3.60;82.40;;;;;;5091598;28;20101;-84
2022/02/19 21:50:34;;;;;;;7.35;2.50;;;3.70;82.40;;;;;;5083556;28;20376;-90
2022/02/19 21:53:21;;;;;;;11.77;2.65;;;3.70;82.40;;;;;;5089232;28;20055;-87
2022/02/19 21:56:11;;;;;;;8.98;2.33;;;3.70;80.50;;;;;;5085886;28;20040;-88
2022/02/19 21:58:59;;;;;;;6.38;2.45;;;3.70;80.50;;;;;;5082325;28;20059;-88
2022/02/19 22:01:47;;;;;;;6.82;2.10;;;3.70;80.40;;;;;;5096473;28;20051;-85
2022/02/19 22:04:35;;;;;;;10.32;2.75;;;3.70;80.50;;;;;;5092148;28;20109;-88
2022/02/19 22:07:23;;;;;;;10.35;3.05;;;3.70;80.90;;;;;;5102085;28;20044;-88
2022/02/19 22:10:12;;;;;;;8.88;2.60;;;3.60;80.80;;;;;;5111459;28;20067;-88
2022/02/19 22:13:03;;;;;;;9.73;2.20;;;3.60;81.40;;;;;;5077837;28;20149;-90
2022/02/19 22:15:52;;;;;;;4.60;2.13;;;3.50;82.40;;;;;;5095361;28;20121;-88
2022/02/19 22:18:41;;;;;;;8.57;2.65;;;3.50;82.40;;;;;;5084943;28;20051;-90
2022/02/19 22:21:29;;;;;;;10.73;2.45;;;3.60;80.90;;;;;;5097618;28;20048;-90
2022/02/19 22:24:16;;;;;;;8.55;2.40;;;3.60;81.40;;;;;;5087939;28;20073;-91
2022/02/19 22:27:04;;;;;;;9.02;3.22;;;3.60;82.40;;;;;;5083629;28;20449;-88
2022/02/19 22:29:53;;;;;;;9.82;3.05;;;3.50;83.20;;;;;;5096252;28;20036;-89
2022/02/19 22:32:40;;;;;;;11.10;3.05;;;3.50;83.00;;;;;;5092206;28;20052;-88
2022/02/19 22:35:32;;;;;;;7.32;2.22;;;3.50;83.40;;;;;;5086919;28;20047;-88
2022/02/19 22:38:19;;;;;;;9.23;2.33;;;3.50;83.00;;;;;;5095915;28;20125;-87
2022/02/19 22:41:06;;;;;;;11.35;2.75;;;3.50;82.80;;;;;;5082397;28;20044;-92
2022/02/19 22:43:54;;;;;;;10.95;2.83;;;3.50;83.00;;;;;;5088289;28;20058;-91
2022/02/19 22:46:41;;;;;;;12.45;3.05;;;3.50;83.30;;;;;;5110824;28;20070;-89
2022/02/19 22:49:31;;;;;;;7.85;2.30;;;3.60;83.00;;;;;;5097579;28;20048;-88
2022/02/19 22:52:21;;;;;;;7.82;2.35;;;3.70;82.90;;;;;;5096585;28;20060;-90
2022/02/19 22:55:11;;;;;;;8.23;2.60;;;3.70;79.50;;;;;;5094600;28;20069;-91
2022/02/19 22:58:00;;;;;;;14.43;2.75;;;3.70;77.80;;;;;;5091333;28;20098;-90
2022/02/19 23:00:48;;;;;;;15.88;2.63;;;3.90;72.50;;;;;;5093883;28;20071;-88
2022/02/19 23:06:43;;;;;;;8.30;2.25;;;4.00;72.50;;;;;;5081830;28;20070;-87
2022/02/19 23:09:31;;;;;;;8.60;2.28;;;4.00;70.90;;;;;;5088768;28;20209;-88
2022/02/19 23:12:20;;;;;;;13.13;2.53;;;4.10;68.80;;;;;;5097490;28;20048;-88